sensor_id;sensor_type;location;lat;lon;timestamp;temperature;humidity
66708;DHT22;53622;0.000;0.000;2023-06-22T00:01:08;25.70;71.20
66708;DHT22;53622;0.000;0.000;2023-06-22T00:03:37;25.70;71.00
66708;DHT22;53622;0.000;0.000;2023-06-22T00:06:08;25.70;71.00
66708;DHT22;53622;0.000;0.000;2023-06-22T00:08:37;25.70;70.90
66708;DHT22;53622;0.000;0.000;2023-06-22T00:11:06;25.60;71.00
66708;DHT22;53622;0.000;0.000;2023-06-22T00:13:36;25.60;71.20
66708;DHT22;53622;0.000;0.000;2023-06-22T00:16:05;25.60;71.20
66708;DHT22;53622;0.000;0.000;2023-06-22T00:18:34;25.60;71.30
66708;DHT22;53622;0.000;0.000;2023-06-22T00:21:04;25.60;71.30
66708;DHT22;53622;0.000;0.000;2023-06-22T00:23:35;25.60;71.30
66708;DHT22;53622;0.000;0.000;2023-06-22T00:26:04;25.60;71.20
66708;DHT22;53622;0.000;0.000;2023-06-22T00:28:34;25.60;71.40
66708;DHT22;53622;0.000;0.000;2023-06-22T00:31:03;25.50;71.40
66708;DHT22;53622;0.000;0.000;2023-06-22T00:33:32;25.50;71.30
66708;DHT22;53622;0.000;0.000;2023-06-22T00:36:06;25.50;71.10
66708;DHT22;53622;0.000;0.000;2023-06-22T00:38:39;25.50;70.90
66708;DHT22;53622;0.000;0.000;2023-06-22T00:41:09;25.50;70.70
66708;DHT22;53622;0.000;0.000;2023-06-22T00:43:38;25.50;71.20
66708;DHT22;53622;0.000;0.000;2023-06-22T00:46:10;25.50;70.20
66708;DHT22;53622;0.000;0.000;2023-06-22T00:48:39;25.50;70.30
66708;DHT22;53622;0.000;0.000;2023-06-22T00:51:10;25.40;70.10
66708;DHT22;53622;0.000;0.000;2023-06-22T00:53:41;25.40;70.30
66708;DHT22;53622;0.000;0.000;2023-06-22T00:56:11;25.40;70.20
66708;DHT22;53622;0.000;0.000;2023-06-22T00:58:41;25.40;70.20
66708;DHT22;53622;0.000;0.000;2023-06-22T01:01:10;25.40;70.20
66708;DHT22;53622;0.000;0.000;2023-06-22T01:03:39;25.30;70.00
66708;DHT22;53622;0.000;0.000;2023-06-22T01:06:10;25.30;69.80
66708;DHT22;53622;0.000;0.000;2023-06-22T01:08:51;25.30;70.30
66708;DHT22;53622;0.000;0.000;2023-06-22T01:11:27;25.40;70.50
66708;DHT22;53622;0.000;0.000;2023-06-22T01:14:06;25.40;71.00
66708;DHT22;53622;0.000;0.000;2023-06-22T01:16:39;25.40;71.40
66708;DHT22;53622;0.000;0.000;2023-06-22T01:19:24;25.40;71.60
66708;DHT22;53622;0.000;0.000;2023-06-22T01:21:57;25.40;71.70
66708;DHT22;53622;0.000;0.000;2023-06-22T01:24:33;25.40;71.80
66708;DHT22;53622;0.000;0.000;2023-06-22T01:27:18;25.40;71.40
66708;DHT22;53622;0.000;0.000;2023-06-22T01:29:54;25.30;71.40
66708;DHT22;53622;0.000;0.000;2023-06-22T01:32:30;25.30;71.90
66708;DHT22;53622;0.000;0.000;2023-06-22T01:35:03;25.30;72.20
66708;DHT22;53622;0.000;0.000;2023-06-22T01:37:34;25.30;72.40
66708;DHT22;53622;0.000;0.000;2023-06-22T01:40:05;25.30;72.00
66708;DHT22;53622;0.000;0.000;2023-06-22T01:42:37;25.30;72.00
66708;DHT22;53622;0.000;0.000;2023-06-22T01:45:10;25.30;72.00
66708;DHT22;53622;0.000;0.000;2023-06-22T01:47:40;25.30;72.10
66708;DHT22;53622;0.000;0.000;2023-06-22T01:50:11;25.30;72.00
66708;DHT22;53622;0.000;0.000;2023-06-22T01:52:41;25.30;71.70
66708;DHT22;53622;0.000;0.000;2023-06-22T01:55:10;25.30;71.60
66708;DHT22;53622;0.000;0.000;2023-06-22T01:57:40;25.20;71.20
66708;DHT22;53622;0.000;0.000;2023-06-22T02:00:14;25.20;71.00
66708;DHT22;53622;0.000;0.000;2023-06-22T02:02:53;25.20;71.30
66708;DHT22;53622;0.000;0.000;2023-06-22T02:05:25;25.20;71.70
66708;DHT22;53622;0.000;0.000;2023-06-22T02:08:08;25.20;71.50
66708;DHT22;53622;0.000;0.000;2023-06-22T02:10:38;25.20;71.40
66708;DHT22;53622;0.000;0.000;2023-06-22T02:13:10;25.20;71.60
66708;DHT22;53622;0.000;0.000;2023-06-22T02:15:42;25.10;71.60
66708;DHT22;53622;0.000;0.000;2023-06-22T02:18:12;25.10;72.20
66708;DHT22;53622;0.000;0.000;2023-06-22T02:20:42;25.10;71.70
66708;DHT22;53622;0.000;0.000;2023-06-22T02:23:12;25.10;71.70
66708;DHT22;53622;0.000;0.000;2023-06-22T02:25:41;25.10;72.10
66708;DHT22;53622;0.000;0.000;2023-06-22T02:28:12;25.10;72.10
66708;DHT22;53622;0.000;0.000;2023-06-22T02:30:43;25.00;72.50
66708;DHT22;53622;0.000;0.000;2023-06-22T02:33:12;25.10;72.70
66708;DHT22;53622;0.000;0.000;2023-06-22T02:35:41;25.10;72.50
66708;DHT22;53622;0.000;0.000;2023-06-22T02:38:15;25.10;72.20
66708;DHT22;53622;0.000;0.000;2023-06-22T02:40:45;25.10;71.90
66708;DHT22;53622;0.000;0.000;2023-06-22T02:43:14;25.00;71.80
66708;DHT22;53622;0.000;0.000;2023-06-22T02:45:46;25.00;71.90
66708;DHT22;53622;0.000;0.000;2023-06-22T02:48:16;25.00;71.70
66708;DHT22;53622;0.000;0.000;2023-06-22T02:50:46;25.00;71.90
66708;DHT22;53622;0.000;0.000;2023-06-22T02:53:15;25.00;71.80
66708;DHT22;53622;0.000;0.000;2023-06-22T02:55:46;25.00;71.50
66708;DHT22;53622;0.000;0.000;2023-06-22T02:58:16;25.00;72.20
66708;DHT22;53622;0.000;0.000;2023-06-22T03:00:47;25.00;72.70
66708;DHT22;53622;0.000;0.000;2023-06-22T03:03:16;25.00;72.90
66708;DHT22;53622;0.000;0.000;2023-06-22T03:05:45;25.00;73.20
66708;DHT22;53622;0.000;0.000;2023-06-22T03:08:15;25.00;73.30
66708;DHT22;53622;0.000;0.000;2023-06-22T03:10:44;25.00;73.40
66708;DHT22;53622;0.000;0.000;2023-06-22T03:13:13;25.00;73.30
66708;DHT22;53622;0.000;0.000;2023-06-22T03:15:43;25.00;73.70
66708;DHT22;53622;0.000;0.000;2023-06-22T03:18:15;25.00;73.80
66708;DHT22;53622;0.000;0.000;2023-06-22T03:20:44;25.00;74.00
66708;DHT22;53622;0.000;0.000;2023-06-22T03:23:13;25.00;74.10
66708;DHT22;53622;0.000;0.000;2023-06-22T03:25:43;25.00;74.70
66708;DHT22;53622;0.000;0.000;2023-06-22T03:28:14;25.00;75.00
66708;DHT22;53622;0.000;0.000;2023-06-22T03:30:43;25.00;75.40
66708;DHT22;53622;0.000;0.000;2023-06-22T03:33:12;25.00;75.40
66708;DHT22;53622;0.000;0.000;2023-06-22T03:35:43;24.90;75.30
66708;DHT22;53622;0.000;0.000;2023-06-22T03:38:12;25.00;75.80
66708;DHT22;53622;0.000;0.000;2023-06-22T03:40:41;24.90;76.20
66708;DHT22;53622;0.000;0.000;2023-06-22T03:43:11;24.90;76.30
66708;DHT22;53622;0.000;0.000;2023-06-22T03:45:40;25.00;76.00
66708;DHT22;53622;0.000;0.000;2023-06-22T03:48:09;25.00;76.20
66708;DHT22;53622;0.000;0.000;2023-06-22T03:50:39;25.00;76.20
66708;DHT22;53622;0.000;0.000;2023-06-22T03:53:10;25.00;76.50
66708;DHT22;53622;0.000;0.000;2023-06-22T03:55:48;25.10;77.00
66708;DHT22;53622;0.000;0.000;2023-06-22T03:58:18;25.00;77.60
66708;DHT22;53622;0.000;0.000;2023-06-22T04:00:49;25.10;77.80
66708;DHT22;53622;0.000;0.000;2023-06-22T04:03:19;25.10;78.50
66708;DHT22;53622;0.000;0.000;2023-06-22T04:05:49;25.10;78.20
66708;DHT22;53622;0.000;0.000;2023-06-22T04:09:48;25.10;78.30
66708;DHT22;53622;0.000;0.000;2023-06-22T04:12:18;25.00;80.90
66708;DHT22;53622;0.000;0.000;2023-06-22T04:14:47;24.80;82.10
66708;DHT22;53622;0.000;0.000;2023-06-22T04:17:16;24.80;81.90
66708;DHT22;53622;0.000;0.000;2023-06-22T04:19:47;24.70;82.10
66708;DHT22;53622;0.000;0.000;2023-06-22T04:22:16;24.70;82.80
66708;DHT22;53622;0.000;0.000;2023-06-22T04:24:46;24.60;83.00
66708;DHT22;53622;0.000;0.000;2023-06-22T04:27:16;24.60;83.20
66708;DHT22;53622;0.000;0.000;2023-06-22T04:29:46;24.60;84.20
66708;DHT22;53622;0.000;0.000;2023-06-22T04:32:18;24.50;84.90
66708;DHT22;53622;0.000;0.000;2023-06-22T04:34:48;24.40;85.90
66708;DHT22;53622;0.000;0.000;2023-06-22T04:37:17;24.40;86.30
66708;DHT22;53622;0.000;0.000;2023-06-22T04:39:46;24.40;86.20
66708;DHT22;53622;0.000;0.000;2023-06-22T04:42:17;24.50;85.80
66708;DHT22;53622;0.000;0.000;2023-06-22T04:44:46;24.50;85.80
66708;DHT22;53622;0.000;0.000;2023-06-22T04:47:16;24.50;85.80
66708;DHT22;53622;0.000;0.000;2023-06-22T04:49:45;24.50;85.70
66708;DHT22;53622;0.000;0.000;2023-06-22T04:52:14;24.40;85.40
66708;DHT22;53622;0.000;0.000;2023-06-22T04:54:45;24.40;85.20
66708;DHT22;53622;0.000;0.000;2023-06-22T04:57:19;24.40;84.30
66708;DHT22;53622;0.000;0.000;2023-06-22T04:59:48;24.40;82.40
66708;DHT22;53622;0.000;0.000;2023-06-22T05:02:18;24.40;80.90
66708;DHT22;53622;0.000;0.000;2023-06-22T05:04:47;24.40;80.80
66708;DHT22;53622;0.000;0.000;2023-06-22T05:07:19;24.40;79.90
66708;DHT22;53622;0.000;0.000;2023-06-22T05:09:48;24.40;80.70
66708;DHT22;53622;0.000;0.000;2023-06-22T05:12:19;24.40;81.70
66708;DHT22;53622;0.000;0.000;2023-06-22T05:14:49;24.40;83.30
66708;DHT22;53622;0.000;0.000;2023-06-22T05:17:18;24.40;83.20
66708;DHT22;53622;0.000;0.000;2023-06-22T05:19:47;24.50;83.30
66708;DHT22;53622;0.000;0.000;2023-06-22T05:22:17;24.50;82.70
66708;DHT22;53622;0.000;0.000;2023-06-22T05:24:47;24.50;83.20
66708;DHT22;53622;0.000;0.000;2023-06-22T05:27:16;24.60;83.10
66708;DHT22;53622;0.000;0.000;2023-06-22T05:29:47;24.60;82.80
66708;DHT22;53622;0.000;0.000;2023-06-22T05:32:16;24.60;82.30
66708;DHT22;53622;0.000;0.000;2023-06-22T05:34:46;24.70;82.10
66708;DHT22;53622;0.000;0.000;2023-06-22T05:37:15;24.70;82.10
66708;DHT22;53622;0.000;0.000;2023-06-22T05:39:45;24.70;81.80
66708;DHT22;53622;0.000;0.000;2023-06-22T05:42:14;24.70;81.60
66708;DHT22;53622;0.000;0.000;2023-06-22T05:47:32;24.80;81.50
66708;DHT22;53622;0.000;0.000;2023-06-22T05:50:02;24.80;81.00
66708;DHT22;53622;0.000;0.000;2023-06-22T05:52:34;24.80;81.00
66708;DHT22;53622;0.000;0.000;2023-06-22T05:55:04;24.80;81.10
66708;DHT22;53622;0.000;0.000;2023-06-22T05:57:34;24.80;81.20
66708;DHT22;53622;0.000;0.000;2023-06-22T06:00:04;24.80;81.10
66708;DHT22;53622;0.000;0.000;2023-06-22T06:02:37;24.80;80.90
66708;DHT22;53622;0.000;0.000;2023-06-22T06:05:12;24.90;80.80
66708;DHT22;53622;0.000;0.000;2023-06-22T06:07:42;24.90;80.40
66708;DHT22;53622;0.000;0.000;2023-06-22T06:10:12;24.90;80.40
66708;DHT22;53622;0.000;0.000;2023-06-22T06:12:41;25.00;80.50
66708;DHT22;53622;0.000;0.000;2023-06-22T06:15:11;25.00;80.80
66708;DHT22;53622;0.000;0.000;2023-06-22T06:17:47;25.00;81.50
66708;DHT22;53622;0.000;0.000;2023-06-22T06:20:20;25.00;81.60
66708;DHT22;53622;0.000;0.000;2023-06-22T06:22:50;25.00;81.40
66708;DHT22;53622;0.000;0.000;2023-06-22T06:25:20;25.00;81.20
66708;DHT22;53622;0.000;0.000;2023-06-22T06:27:50;25.00;81.00
66708;DHT22;53622;0.000;0.000;2023-06-22T06:30:22;25.00;80.80
66708;DHT22;53622;0.000;0.000;2023-06-22T06:32:53;25.00;80.40
66708;DHT22;53622;0.000;0.000;2023-06-22T06:35:23;25.00;80.10
66708;DHT22;53622;0.000;0.000;2023-06-22T06:37:53;25.00;79.80
66708;DHT22;53622;0.000;0.000;2023-06-22T06:40:22;25.00;79.50
66708;DHT22;53622;0.000;0.000;2023-06-22T06:42:52;25.00;79.30
66708;DHT22;53622;0.000;0.000;2023-06-22T06:45:23;25.10;79.40
66708;DHT22;53622;0.000;0.000;2023-06-22T06:47:54;25.10;79.40
66708;DHT22;53622;0.000;0.000;2023-06-22T06:50:24;25.10;79.30
66708;DHT22;53622;0.000;0.000;2023-06-22T06:52:53;25.10;79.50
66708;DHT22;53622;0.000;0.000;2023-06-22T06:55:24;25.00;79.60
66708;DHT22;53622;0.000;0.000;2023-06-22T06:57:53;25.10;79.90
66708;DHT22;53622;0.000;0.000;2023-06-22T07:00:23;25.10;80.10
66708;DHT22;53622;0.000;0.000;2023-06-22T07:02:54;25.10;80.70
66708;DHT22;53622;0.000;0.000;2023-06-22T07:05:24;25.20;81.20
66708;DHT22;53622;0.000;0.000;2023-06-22T07:07:54;25.20;81.80
66708;DHT22;53622;0.000;0.000;2023-06-22T07:10:23;25.20;81.70
66708;DHT22;53622;0.000;0.000;2023-06-22T07:12:52;25.20;82.80
66708;DHT22;53622;0.000;0.000;2023-06-22T07:15:22;25.20;82.10
66708;DHT22;53622;0.000;0.000;2023-06-22T07:17:51;25.20;81.80
66708;DHT22;53622;0.000;0.000;2023-06-22T07:20:22;25.20;81.50
66708;DHT22;53622;0.000;0.000;2023-06-22T07:22:51;25.20;81.60
66708;DHT22;53622;0.000;0.000;2023-06-22T07:25:21;25.20;81.60
66708;DHT22;53622;0.000;0.000;2023-06-22T07:27:59;25.20;81.70
66708;DHT22;53622;0.000;0.000;2023-06-22T07:30:29;25.20;81.60
66708;DHT22;53622;0.000;0.000;2023-06-22T07:32:59;25.20;81.80
66708;DHT22;53622;0.000;0.000;2023-06-22T07:35:32;25.20;81.70
66708;DHT22;53622;0.000;0.000;2023-06-22T07:38:02;25.20;81.60
66708;DHT22;53622;0.000;0.000;2023-06-22T07:40:33;25.20;81.50
66708;DHT22;53622;0.000;0.000;2023-06-22T07:43:03;25.20;81.90
66708;DHT22;53622;0.000;0.000;2023-06-22T07:45:32;25.20;81.70
66708;DHT22;53622;0.000;0.000;2023-06-22T07:48:03;25.20;81.30
66708;DHT22;53622;0.000;0.000;2023-06-22T07:50:33;25.20;81.20
66708;DHT22;53622;0.000;0.000;2023-06-22T07:53:03;25.20;80.90
66708;DHT22;53622;0.000;0.000;2023-06-22T07:55:32;25.20;80.90
66708;DHT22;53622;0.000;0.000;2023-06-22T07:58:01;25.20;80.70
66708;DHT22;53622;0.000;0.000;2023-06-22T08:00:31;25.20;80.50
66708;DHT22;53622;0.000;0.000;2023-06-22T08:03:01;25.20;80.30
66708;DHT22;53622;0.000;0.000;2023-06-22T08:05:33;25.20;80.00
66708;DHT22;53622;0.000;0.000;2023-06-22T08:08:02;25.20;79.90
66708;DHT22;53622;0.000;0.000;2023-06-22T08:10:32;25.20;79.70
66708;DHT22;53622;0.000;0.000;2023-06-22T08:13:02;25.20;79.50
66708;DHT22;53622;0.000;0.000;2023-06-22T08:15:31;25.20;79.50
66708;DHT22;53622;0.000;0.000;2023-06-22T08:18:00;25.20;79.30
66708;DHT22;53622;0.000;0.000;2023-06-22T08:20:30;25.20;79.30
66708;DHT22;53622;0.000;0.000;2023-06-22T08:23:00;25.20;79.10
66708;DHT22;53622;0.000;0.000;2023-06-22T08:25:34;25.20;78.90
66708;DHT22;53622;0.000;0.000;2023-06-22T08:28:04;25.20;79.00
66708;DHT22;53622;0.000;0.000;2023-06-22T08:30:33;25.20;79.00
66708;DHT22;53622;0.000;0.000;2023-06-22T08:33:03;25.20;78.90
66708;DHT22;53622;0.000;0.000;2023-06-22T08:35:32;25.20;78.80
66708;DHT22;53622;0.000;0.000;2023-06-22T08:38:03;25.20;78.80
66708;DHT22;53622;0.000;0.000;2023-06-22T08:40:32;25.20;78.80
66708;DHT22;53622;0.000;0.000;2023-06-22T08:43:01;25.20;78.80
66708;DHT22;53622;0.000;0.000;2023-06-22T08:45:30;25.20;78.80
66708;DHT22;53622;0.000;0.000;2023-06-22T08:48:00;25.20;78.90
66708;DHT22;53622;0.000;0.000;2023-06-22T08:50:30;25.20;78.90
66708;DHT22;53622;0.000;0.000;2023-06-22T08:52:59;25.20;79.00
66708;DHT22;53622;0.000;0.000;2023-06-22T08:55:29;25.20;78.90
66708;DHT22;53622;0.000;0.000;2023-06-22T08:57:59;25.20;78.70
66708;DHT22;53622;0.000;0.000;2023-06-22T09:00:29;25.20;78.50
66708;DHT22;53622;0.000;0.000;2023-06-22T09:03:00;25.20;78.30
66708;DHT22;53622;0.000;0.000;2023-06-22T09:05:30;25.20;78.10
66708;DHT22;53622;0.000;0.000;2023-06-22T09:08:00;25.20;78.00
66708;DHT22;53622;0.000;0.000;2023-06-22T09:10:30;25.20;77.80
66708;DHT22;53622;0.000;0.000;2023-06-22T09:13:00;25.20;77.70
66708;DHT22;53622;0.000;0.000;2023-06-22T09:15:30;25.20;77.70
66708;DHT22;53622;0.000;0.000;2023-06-22T09:17:59;25.20;77.60
66708;DHT22;53622;0.000;0.000;2023-06-22T09:20:29;25.20;77.30
66708;DHT22;53622;0.000;0.000;2023-06-22T09:22:59;25.20;77.30
66708;DHT22;53622;0.000;0.000;2023-06-22T09:25:30;25.20;77.40
66708;DHT22;53622;0.000;0.000;2023-06-22T09:27:59;25.20;77.40
66708;DHT22;53622;0.000;0.000;2023-06-22T09:30:29;25.20;77.30
66708;DHT22;53622;0.000;0.000;2023-06-22T09:32:58;25.20;77.40
66708;DHT22;53622;0.000;0.000;2023-06-22T09:35:27;25.20;77.40
66708;DHT22;53622;0.000;0.000;2023-06-22T09:37:57;25.20;77.40
66708;DHT22;53622;0.000;0.000;2023-06-22T09:40:26;25.20;77.40
66708;DHT22;53622;0.000;0.000;2023-06-22T09:42:57;25.20;77.50
66708;DHT22;53622;0.000;0.000;2023-06-22T09:45:26;25.20;77.40
66708;DHT22;53622;0.000;0.000;2023-06-22T09:47:55;25.20;77.60
66708;DHT22;53622;0.000;0.000;2023-06-22T09:50:24;25.20;77.50
66708;DHT22;53622;0.000;0.000;2023-06-22T09:52:54;25.20;77.50
66708;DHT22;53622;0.000;0.000;2023-06-22T09:55:23;25.20;77.40
66708;DHT22;53622;0.000;0.000;2023-06-22T09:57:52;25.20;77.60
66708;DHT22;53622;0.000;0.000;2023-06-22T10:00:24;25.20;77.60
66708;DHT22;53622;0.000;0.000;2023-06-22T10:02:55;25.20;77.60
66708;DHT22;53622;0.000;0.000;2023-06-22T10:05:28;25.20;77.50
66708;DHT22;53622;0.000;0.000;2023-06-22T10:07:57;25.20;77.40
66708;DHT22;53622;0.000;0.000;2023-06-22T10:10:27;25.20;77.30
66708;DHT22;53622;0.000;0.000;2023-06-22T10:12:57;25.20;77.20
66708;DHT22;53622;0.000;0.000;2023-06-22T10:15:32;25.20;76.90
66708;DHT22;53622;0.000;0.000;2023-06-22T10:18:02;25.20;76.80
66708;DHT22;53622;0.000;0.000;2023-06-22T10:20:31;25.20;76.80
66708;DHT22;53622;0.000;0.000;2023-06-22T10:23:00;25.30;76.80
66708;DHT22;53622;0.000;0.000;2023-06-22T10:25:29;25.20;76.60
66708;DHT22;53622;0.000;0.000;2023-06-22T10:27:59;25.30;76.60
66708;DHT22;53622;0.000;0.000;2023-06-22T10:30:29;25.20;76.60
66708;DHT22;53622;0.000;0.000;2023-06-22T10:32:59;25.20;76.50
66708;DHT22;53622;0.000;0.000;2023-06-22T10:35:28;25.30;76.60
66708;DHT22;53622;0.000;0.000;2023-06-22T10:37:58;25.20;76.70
66708;DHT22;53622;0.000;0.000;2023-06-22T10:40:28;25.20;76.70
66708;DHT22;53622;0.000;0.000;2023-06-22T10:42:57;25.20;76.70
66708;DHT22;53622;0.000;0.000;2023-06-22T10:45:26;25.20;76.60
66708;DHT22;53622;0.000;0.000;2023-06-22T10:47:58;25.20;76.70
66708;DHT22;53622;0.000;0.000;2023-06-22T10:50:28;25.20;76.80
66708;DHT22;53622;0.000;0.000;2023-06-22T10:52:58;25.20;76.80
66708;DHT22;53622;0.000;0.000;2023-06-22T10:55:27;25.20;76.90
66708;DHT22;53622;0.000;0.000;2023-06-22T10:58:07;25.20;76.90
66708;DHT22;53622;0.000;0.000;2023-06-22T11:00:38;25.20;77.00
66708;DHT22;53622;0.000;0.000;2023-06-22T11:03:09;25.20;76.90
66708;DHT22;53622;0.000;0.000;2023-06-22T11:05:41;25.20;77.00
66708;DHT22;53622;0.000;0.000;2023-06-22T11:08:10;25.20;76.80
66708;DHT22;53622;0.000;0.000;2023-06-22T11:10:39;25.20;76.90
66708;DHT22;53622;0.000;0.000;2023-06-22T11:13:09;25.20;76.60
66708;DHT22;53622;0.000;0.000;2023-06-22T11:15:39;25.20;76.80
66708;DHT22;53622;0.000;0.000;2023-06-22T11:18:10;25.20;76.90
66708;DHT22;53622;0.000;0.000;2023-06-22T11:20:39;25.20;76.80
66708;DHT22;53622;0.000;0.000;2023-06-22T11:23:08;25.20;76.70
66708;DHT22;53622;0.000;0.000;2023-06-22T11:25:39;25.20;76.60
66708;DHT22;53622;0.000;0.000;2023-06-22T11:28:10;25.20;76.60
66708;DHT22;53622;0.000;0.000;2023-06-22T11:30:39;25.20;76.60
66708;DHT22;53622;0.000;0.000;2023-06-22T11:33:10;25.20;77.20
66708;DHT22;53622;0.000;0.000;2023-06-22T11:35:39;25.20;76.40
66708;DHT22;53622;0.000;0.000;2023-06-22T11:38:08;25.20;76.30
66708;DHT22;53622;0.000;0.000;2023-06-22T11:40:37;25.20;76.30
66708;DHT22;53622;0.000;0.000;2023-06-22T11:43:07;25.20;76.40
66708;DHT22;53622;0.000;0.000;2023-06-22T11:45:36;25.20;76.40
66708;DHT22;53622;0.000;0.000;2023-06-22T11:48:05;25.20;76.40
66708;DHT22;53622;0.000;0.000;2023-06-22T11:50:36;25.20;76.30
66708;DHT22;53622;0.000;0.000;2023-06-22T11:53:05;25.20;76.40
66708;DHT22;53622;0.000;0.000;2023-06-22T11:55:35;25.20;76.40
66708;DHT22;53622;0.000;0.000;2023-06-22T11:58:04;25.20;76.40
66708;DHT22;53622;0.000;0.000;2023-06-22T12:00:34;25.20;76.30
66708;DHT22;53622;0.000;0.000;2023-06-22T12:03:17;25.20;76.30
66708;DHT22;53622;0.000;0.000;2023-06-22T12:05:50;25.20;76.40
66708;DHT22;53622;0.000;0.000;2023-06-22T12:08:20;25.20;76.20
66708;DHT22;53622;0.000;0.000;2023-06-22T12:10:50;25.20;76.20
66708;DHT22;53622;0.000;0.000;2023-06-22T12:13:21;25.20;76.00
66708;DHT22;53622;0.000;0.000;2023-06-22T12:15:50;25.20;75.90
66708;DHT22;53622;0.000;0.000;2023-06-22T12:18:20;25.20;75.70
66708;DHT22;53622;0.000;0.000;2023-06-22T12:20:51;25.30;75.90
66708;DHT22;53622;0.000;0.000;2023-06-22T12:23:20;25.30;75.80
66708;DHT22;53622;0.000;0.000;2023-06-22T12:25:49;25.20;75.70
66708;DHT22;53622;0.000;0.000;2023-06-22T12:28:18;25.20;75.60
66708;DHT22;53622;0.000;0.000;2023-06-22T12:30:48;25.30;75.80
66708;DHT22;53622;0.000;0.000;2023-06-22T12:33:17;25.20;75.60
66708;DHT22;53622;0.000;0.000;2023-06-22T12:35:46;25.20;75.80
66708;DHT22;53622;0.000;0.000;2023-06-22T12:38:18;25.20;75.70
66708;DHT22;53622;0.000;0.000;2023-06-22T12:40:47;25.20;75.70
66708;DHT22;53622;0.000;0.000;2023-06-22T12:43:17;25.20;75.70
66708;DHT22;53622;0.000;0.000;2023-06-22T12:45:46;25.20;75.70
66708;DHT22;53622;0.000;0.000;2023-06-22T12:48:16;25.20;75.60
66708;DHT22;53622;0.000;0.000;2023-06-22T12:50:45;25.20;75.60
66708;DHT22;53622;0.000;0.000;2023-06-22T12:53:15;25.20;75.60
66708;DHT22;53622;0.000;0.000;2023-06-22T12:55:46;25.20;75.60
66708;DHT22;53622;0.000;0.000;2023-06-22T12:58:15;25.20;75.70
66708;DHT22;53622;0.000;0.000;2023-06-22T13:00:45;25.20;75.70
66708;DHT22;53622;0.000;0.000;2023-06-22T13:03:14;25.20;75.80
66708;DHT22;53622;0.000;0.000;2023-06-22T13:05:43;25.20;75.80
66708;DHT22;53622;0.000;0.000;2023-06-22T13:08:13;25.20;75.80
66708;DHT22;53622;0.000;0.000;2023-06-22T13:10:42;25.20;75.90
66708;DHT22;53622;0.000;0.000;2023-06-22T13:13:12;25.20;75.80
66708;DHT22;53622;0.000;0.000;2023-06-22T13:15:42;25.20;75.80
66708;DHT22;53622;0.000;0.000;2023-06-22T13:18:11;25.20;75.90
66708;DHT22;53622;0.000;0.000;2023-06-22T13:20:40;25.20;75.80
66708;DHT22;53622;0.000;0.000;2023-06-22T13:23:09;25.20;75.80
66708;DHT22;53622;0.000;0.000;2023-06-22T13:25:39;25.20;75.80
66708;DHT22;53622;0.000;0.000;2023-06-22T13:28:08;25.20;75.70
66708;DHT22;53622;0.000;0.000;2023-06-22T13:30:56;25.20;75.60
66708;DHT22;53622;0.000;0.000;2023-06-22T13:33:25;25.20;75.50
66708;DHT22;53622;0.000;0.000;2023-06-22T13:35:55;25.20;75.20
66708;DHT22;53622;0.000;0.000;2023-06-22T13:38:24;25.30;75.20
66708;DHT22;53622;0.000;0.000;2023-06-22T13:40:53;25.30;75.10
66708;DHT22;53622;0.000;0.000;2023-06-22T13:43:27;25.30;74.70
66708;DHT22;53622;0.000;0.000;2023-06-22T13:45:58;25.30;74.80
66708;DHT22;53622;0.000;0.000;2023-06-22T13:48:28;25.30;75.00
66708;DHT22;53622;0.000;0.000;2023-06-22T13:50:57;25.20;75.10
66708;DHT22;53622;0.000;0.000;2023-06-22T13:53:26;25.20;74.80
66708;DHT22;53622;0.000;0.000;2023-06-22T13:55:56;25.20;75.00
66708;DHT22;53622;0.000;0.000;2023-06-22T13:58:27;25.30;75.00
66708;DHT22;53622;0.000;0.000;2023-06-22T14:00:58;25.30;74.90
66708;DHT22;53622;0.000;0.000;2023-06-22T14:03:30;25.30;74.80
66708;DHT22;53622;0.000;0.000;2023-06-22T14:06:02;25.30;74.60
66708;DHT22;53622;0.000;0.000;2023-06-22T14:08:36;25.20;74.40
66708;DHT22;53622;0.000;0.000;2023-06-22T14:11:09;25.30;74.50
66708;DHT22;53622;0.000;0.000;2023-06-22T14:13:38;25.30;74.60
66708;DHT22;53622;0.000;0.000;2023-06-22T14:16:11;25.30;74.60
66708;DHT22;53622;0.000;0.000;2023-06-22T14:18:40;25.30;74.70
66708;DHT22;53622;0.000;0.000;2023-06-22T14:21:09;25.30;75.70
66708;DHT22;53622;0.000;0.000;2023-06-22T14:23:39;25.30;74.80
66708;DHT22;53622;0.000;0.000;2023-06-22T14:26:08;25.30;74.80
66708;DHT22;53622;0.000;0.000;2023-06-22T14:28:38;25.30;74.70
66708;DHT22;53622;0.000;0.000;2023-06-22T14:31:07;25.30;74.70
66708;DHT22;53622;0.000;0.000;2023-06-22T14:33:38;25.20;74.50
66708;DHT22;53622;0.000;0.000;2023-06-22T14:36:07;25.20;74.50
66708;DHT22;53622;0.000;0.000;2023-06-22T14:38:39;25.20;74.40
66708;DHT22;53622;0.000;0.000;2023-06-22T14:41:08;25.20;74.30
66708;DHT22;53622;0.000;0.000;2023-06-22T14:43:44;25.20;74.20
66708;DHT22;53622;0.000;0.000;2023-06-22T14:52:57;26.10;69.90
66708;DHT22;53622;0.000;0.000;2023-06-22T14:55:26;25.70;71.00
66708;DHT22;53622;0.000;0.000;2023-06-22T14:57:56;25.50;71.70
66708;DHT22;53622;0.000;0.000;2023-06-22T15:00:25;25.40;71.30
66708;DHT22;53622;0.000;0.000;2023-06-22T15:02:55;25.10;69.10
66708;DHT22;53622;0.000;0.000;2023-06-22T15:20:10;24.80;67.10
66708;DHT22;53622;0.000;0.000;2023-06-22T15:22:40;25.40;66.70
66708;DHT22;53622;0.000;0.000;2023-06-22T15:25:09;25.20;67.50
66708;DHT22;53622;0.000;0.000;2023-06-22T15:27:38;25.10;67.90
66708;DHT22;53622;0.000;0.000;2023-06-22T15:30:08;25.10;68.40
66708;DHT22;53622;0.000;0.000;2023-06-22T15:32:38;25.10;68.60
66708;DHT22;53622;0.000;0.000;2023-06-22T15:35:07;25.10;68.80
66708;DHT22;53622;0.000;0.000;2023-06-22T15:37:38;25.10;68.80
66708;DHT22;53622;0.000;0.000;2023-06-22T15:40:08;25.10;68.90
66708;DHT22;53622;0.000;0.000;2023-06-22T15:42:38;25.10;69.00
66708;DHT22;53622;0.000;0.000;2023-06-22T15:45:08;25.10;69.00
66708;DHT22;53622;0.000;0.000;2023-06-22T15:47:37;25.20;69.20
66708;DHT22;53622;0.000;0.000;2023-06-22T15:50:07;25.20;69.10
66708;DHT22;53622;0.000;0.000;2023-06-22T15:52:39;25.20;69.10
66708;DHT22;53622;0.000;0.000;2023-06-22T15:55:08;25.20;69.20
66708;DHT22;53622;0.000;0.000;2023-06-22T15:57:38;25.20;69.30
66708;DHT22;53622;0.000;0.000;2023-06-22T16:00:08;25.20;69.40
66708;DHT22;53622;0.000;0.000;2023-06-22T16:02:41;25.20;69.70
66708;DHT22;53622;0.000;0.000;2023-06-22T16:05:11;25.20;69.80
66708;DHT22;53622;0.000;0.000;2023-06-22T16:07:42;25.20;69.90
66708;DHT22;53622;0.000;0.000;2023-06-22T16:10:12;25.20;70.00
66708;DHT22;53622;0.000;0.000;2023-06-22T16:12:44;25.20;71.00
66708;DHT22;53622;0.000;0.000;2023-06-22T16:15:13;25.20;70.50
66708;DHT22;53622;0.000;0.000;2023-06-22T16:17:42;25.20;70.50
66708;DHT22;53622;0.000;0.000;2023-06-22T16:20:12;25.20;70.90
66708;DHT22;53622;0.000;0.000;2023-06-22T16:22:46;25.20;71.20
66708;DHT22;53622;0.000;0.000;2023-06-22T16:25:15;25.20;71.20
66708;DHT22;53622;0.000;0.000;2023-06-22T16:27:45;25.20;71.50
66708;DHT22;53622;0.000;0.000;2023-06-22T16:30:15;25.20;71.80